Time;durP1;ratioP1;P1;durP2;ratioP2;P2;SDS_P1;SDS_P2;PMS_P1;PMS_P2;Temp;Humidity;BMP_temperature;BMP_pressure;BME280_temperature;BME280_humidity;BME280_pressure;Samples;Min_cycle;Max_cycle;Signal;HPM_P1;HPM_P2
2022/11/27 00:01:17;;;;;;;18.98;5.82;;;;;;;6.64;100.00;102247.34;4905233;29;20177;-36
2022/11/27 00:03:42;;;;;;;23.88;6.75;;;;;;;6.59;100.00;102236.16;4915723;29;20032;-35
2022/11/27 00:06:11;;;;;;;17.70;5.50;;;;;;;6.66;100.00;102228.47;4910757;29;20436;-35
2022/11/27 00:08:37;;;;;;;27.67;6.68;;;;;;;6.62;100.00;102232.38;4928953;29;20043;-35
2022/11/27 00:11:07;;;;;;;18.42;6.50;;;;;;;6.57;100.00;102222.88;4915324;29;20032;-36
2022/11/27 00:13:32;;;;;;;16.52;5.90;;;;;;;6.54;100.00;102219.63;4915134;29;20032;-35
2022/11/27 00:15:58;;;;;;;23.85;6.75;;;;;;;6.55;100.00;102232.84;4915078;29;20033;-37
2022/11/27 00:18:23;;;;;;;29.92;6.15;;;;;;;6.51;100.00;102225.22;4915643;29;20503;-35
2022/11/27 00:20:48;;;;;;;23.10;6.68;;;;;;;6.45;100.00;102223.00;4910231;29;20421;-35
2022/11/27 00:23:14;;;;;;;21.95;5.78;;;;;;;6.48;100.00;102220.09;4897030;29;20120;-35
2022/11/27 00:25:39;;;;;;;18.85;5.00;;;;;;;6.56;100.00;102217.66;4904928;29;20080;-36
2022/11/27 00:28:04;;;;;;;19.90;5.45;;;;;;;6.56;100.00;102217.66;4905917;29;20399;-35
2022/11/27 00:30:30;;;;;;;21.42;5.57;;;;;;;6.57;100.00;102216.69;4912708;29;20502;-37
2022/11/27 00:32:55;;;;;;;27.30;5.63;;;;;;;6.60;100.00;102211.09;4896882;29;20123;-36
2022/11/27 00:35:20;;;;;;;19.50;5.20;;;;;;;6.55;100.00;102215.94;4897096;29;20054;-35
2022/11/27 00:37:46;;;;;;;19.80;5.03;;;;;;;6.51;100.00;102209.16;4903184;29;20039;-37
2022/11/27 00:40:11;;;;;;;22.65;5.43;;;;;;;6.57;100.00;102206.00;4915347;29;20039;-35
2022/11/27 00:42:36;;;;;;;19.90;5.22;;;;;;;6.55;100.00;102191.88;4897171;29;20029;-35
2022/11/27 00:45:02;;;;;;;16.77;5.07;;;;;;;6.54;100.00;102199.06;4896467;29;20029;-36
2022/11/27 00:47:28;;;;;;;17.17;5.50;;;;;;;6.53;100.00;102194.69;4900648;29;20024;-35
2022/11/27 00:49:53;;;;;;;22.33;5.15;;;;;;;6.55;100.00;102202.56;4915393;29;20083;-35
2022/11/27 00:52:19;;;;;;;19.20;5.20;;;;;;;6.57;100.00;102203.31;4914904;29;20460;-35
2022/11/27 00:54:44;;;;;;;20.75;5.30;;;;;;;6.59;100.00;102206.72;4914671;29;20352;-35
2022/11/27 00:57:09;;;;;;;26.35;6.25;;;;;;;6.60;100.00;102219.97;4909621;29;20476;-35
2022/11/27 00:59:35;;;;;;;25.67;4.72;;;;;;;6.63;100.00;102213.50;4896745;29;20028;-35
2022/11/27 01:02:00;;;;;;;19.42;5.30;;;;;;;6.68;100.00;102207.81;4908827;29;20039;-35
2022/11/27 01:04:25;;;;;;;17.80;5.50;;;;;;;6.66;100.00;102193.69;4914942;29;20059;-35
2022/11/27 01:06:50;;;;;;;17.63;4.63;;;;;;;6.69;100.00;102188.97;4903981;29;20036;-36
2022/11/27 01:09:16;;;;;;;16.38;4.65;;;;;;;6.71;100.00;102184.31;4913540;29;20040;-38
2022/11/27 01:11:42;;;;;;;16.80;5.07;;;;;;;6.72;100.00;102191.38;4914387;29;20032;-35
2022/11/27 01:14:14;;;;;;;21.67;4.57;;;;;;;6.69;100.00;102185.41;4914721;29;20492;-35
2022/11/27 01:16:39;;;;;;;17.10;4.22;;;;;;;6.71;100.00;102178.13;4914241;29;20036;-35
2022/11/27 01:19:04;;;;;;;14.38;4.68;;;;;;;6.77;100.00;102175.81;4897883;29;20369;-34
2022/11/27 01:21:32;;;;;;;16.83;4.28;;;;;;;6.72;100.00;102159.28;4904782;29;20115;-35
2022/11/27 01:23:58;;;;;;;18.45;4.88;;;;;;;6.68;100.00;102152.47;4914696;29;20031;-37
2022/11/27 01:26:23;;;;;;;17.95;3.70;;;;;;;6.69;100.00;102156.88;4906795;29;20056;-35
2022/11/27 01:28:53;;;;;;;20.05;5.13;;;;;;;6.65;100.00;102147.38;4912939;29;20039;-35
2022/11/27 01:31:21;;;;;;;19.42;4.30;;;;;;;6.66;100.00;102140.19;4906383;29;20028;-36
2022/11/27 01:33:49;;;;;;;13.45;3.90;;;;;;;6.58;100.00;102135.44;4896150;29;20416;-36
2022/11/27 01:36:15;;;;;;;;;;;;;;;6.62;100.00;102134.25;4879116;29;20485;-35
2022/11/27 01:38:41;;;;;;;18.48;4.72;;;;;;;6.65;100.00;102127.81;4896557;29;19973;-35
2022/11/27 01:41:12;;;;;;;17.80;4.20;;;;;;;6.63;100.00;102127.91;4901500;29;20095;-36
2022/11/27 01:43:50;;;;;;;12.77;3.85;;;;;;;6.56;100.00;102118.72;4913796;29;20398;-35
2022/11/27 01:46:28;;;;;;;17.92;4.68;;;;;;;6.58;100.00;102117.59;4903384;29;20476;-37
2022/11/27 01:49:16;;;;;;;15.48;4.32;;;;;;;6.57;100.00;102112.38;4911744;29;20412;-36
2022/11/27 01:51:52;;;;;;;15.95;4.28;;;;;;;6.58;100.00;102119.41;4897374;29;20482;-35
2022/11/27 01:54:18;;;;;;;17.05;4.55;;;;;;;6.57;100.00;102115.03;4928443;29;20385;-35
2022/11/27 01:56:45;;;;;;;19.45;4.72;;;;;;;6.58;100.00;102103.34;4885972;29;20408;-35
2022/11/27 01:59:11;;;;;;;16.08;4.10;;;;;;;6.58;100.00;102103.34;4878973;29;20229;-36
2022/11/27 02:01:37;;;;;;;19.88;4.55;;;;;;;6.55;100.00;102101.78;4927983;29;20036;-36
2022/11/27 02:04:02;;;;;;;16.35;4.68;;;;;;;6.58;100.00;102103.34;4913720;29;20020;-36
2022/11/27 02:06:28;;;;;;;13.35;4.05;;;;;;;6.55;100.00;102098.25;4912655;29;20066;-36
2022/11/27 02:08:54;;;;;;;20.40;4.78;;;;;;;6.63;100.00;102103.84;4911832;29;20024;-36
2022/11/27 02:11:37;;;;;;;18.00;4.53;;;;;;;6.57;100.00;102101.66;4889931;29;20040;-37
2022/11/27 02:14:32;;;;;;;17.67;4.85;;;;;;;6.60;100.00;102112.13;4913151;29;20036;-36
2022/11/27 02:17:07;;;;;;;19.50;3.97;;;;;;;6.64;100.00;102113.56;4912565;29;20447;-38
2022/11/27 02:19:42;;;;;;;25.88;5.03;;;;;;;6.62;100.00;102098.63;4912870;29;20039;-35
2022/11/27 02:22:34;;;;;;;18.30;4.50;;;;;;;6.66;100.00;102089.34;4912963;29;20043;-36
2022/11/27 02:25:13;;;;;;;14.13;4.20;;;;;;;6.72;100.00;102100.41;4893258;29;20036;-35
2022/11/27 02:27:56;;;;;;;21.35;4.40;;;;;;;6.78;100.00;102101.75;4895435;29;20401;-36
2022/11/27 02:30:21;;;;;;;22.20;4.20;;;;;;;6.74;100.00;102100.28;4878741;29;20059;-36
2022/11/27 02:32:59;;;;;;;22.13;4.88;;;;;;;6.72;100.00;102095.06;4894786;29;20056;-35
2022/11/27 02:35:24;;;;;;;7.05;3.22;;;;;;;6.76;100.00;102088.47;4897093;29;20099;-36
2022/11/27 02:37:52;;;;;;;14.15;3.85;;;;;;;6.79;100.00;102082.91;4913506;29;20075;-36
2022/11/27 02:40:36;;;;;;;18.63;4.15;;;;;;;6.78;100.00;102081.19;4895140;29;20028;-35
2022/11/27 02:43:09;;;;;;;15.45;4.30;;;;;;;6.84;100.00;102078.97;4877844;29;20052;-35
2022/11/27 02:45:38;;;;;;;21.00;4.38;;;;;;;6.81;100.00;102083.59;4908986;29;20401;-36
2022/11/27 02:48:05;;;;;;;18.60;4.30;;;;;;;6.86;100.00;102077.03;4884153;29;20047;-35
2022/11/27 02:50:31;;;;;;;12.98;3.50;;;;;;;6.84;100.00;102081.66;4886553;29;20032;-36
2022/11/27 02:53:00;;;;;;;20.30;5.30;;;;;;;6.77;100.00;102090.19;4896495;29;20032;-36
2022/11/27 02:55:29;;;;;;;16.02;3.80;;;;;;;6.68;100.00;102104.31;4905189;29;20043;-36
2022/11/27 02:57:56;;;;;;;18.67;3.35;;;;;;;6.72;100.00;102104.94;4913390;29;20111;-36
2022/11/27 03:00:21;;;;;;;18.15;4.68;;;;;;;6.76;100.00;102090.31;4891784;29;20028;-35
2022/11/27 03:02:55;;;;;;;12.38;3.65;;;;;;;6.71;100.00;102085.31;4913411;29;20028;-35
2022/11/27 03:05:22;;;;;;;23.67;4.30;;;;;;;6.81;100.00;102083.59;4896230;29;20025;-36
2022/11/27 03:08:00;;;;;;;13.77;3.35;;;;;;;6.72;100.00;102084.38;4896176;29;20091;-35
2022/11/27 03:10:30;;;;;;;15.38;4.13;;;;;;;6.75;100.00;102072.56;4912416;29;20032;-36
2022/11/27 03:12:56;;;;;;;15.70;3.70;;;;;;;6.79;100.00;102069.50;4912725;29;20036;-36
2022/11/27 03:15:24;;;;;;;17.20;4.13;;;;;;;6.78;100.00;102061.59;4894874;29;20020;-38
2022/11/27 03:17:54;;;;;;;22.73;3.88;;;;;;;6.82;100.00;102066.59;4898609;29;20032;-37
2022/11/27 03:20:25;;;;;;;21.17;4.72;;;;;;;6.79;100.00;102064.16;4898619;29;20032;-35
2022/11/27 03:22:53;;;;;;;18.90;3.90;;;;;;;6.77;100.00;102076.81;4930154;29;20051;-36
2022/11/27 03:25:18;;;;;;;15.95;3.92;;;;;;;6.81;100.00;102070.22;4895758;29;20112;-36
2022/11/27 03:27:57;;;;;;;15.82;3.70;;;;;;;6.84;100.00;102068.28;4898934;29;20460;-37
2022/11/27 03:30:22;;;;;;;14.45;3.58;;;;;;;6.88;100.00;102061.69;4891765;29;20195;-34
2022/11/27 03:32:48;;;;;;;14.85;4.47;;;;;;;6.85;100.00;102054.78;4915409;29;20035;-35
2022/11/27 03:35:16;;;;;;;16.55;4.22;;;;;;;6.89;100.00;102058.88;4915024;29;20052;-36
2022/11/27 03:37:42;;;;;;;13.93;3.38;;;;;;;6.91;100.00;102058.75;4905516;29;20199;-36
2022/11/27 03:40:08;;;;;;;17.45;3.50;;;;;;;6.94;100.00;102040.59;4913051;29;20445;-36
2022/11/27 03:42:40;;;;;;;13.57;3.60;;;;;;;6.98;100.00;102057.28;4880875;29;20039;-37
2022/11/27 03:45:27;;;;;;;18.10;3.30;;;;;;;6.96;100.00;102044.00;4915650;29;20103;-35
2022/11/27 03:48:01;;;;;;;16.03;3.47;;;;;;;6.91;100.00;102050.72;4916449;29;20028;-35
2022/11/27 03:51:00;;;;;;;14.57;3.53;;;;;;;6.92;100.00;102047.06;4908553;29;20032;-37
2022/11/27 03:53:48;;;;;;;20.05;3.83;;;;;;;6.97;100.00;102055.56;4898560;29;20120;-35
2022/11/27 03:56:25;;;;;;;11.77;3.38;;;;;;;6.92;100.00;102053.25;4912394;29;20149;-35
2022/11/27 03:58:54;;;;;;;18.40;3.55;;;;;;;6.88;100.00;102045.63;4914914;29;20040;-37
2022/11/27 04:01:22;;;;;;;18.98;3.60;;;;;;;6.89;100.00;102055.34;4893990;29;20043;-35
2022/11/27 04:03:47;;;;;;;;;;;;;;;6.99;100.00;102048.25;4899677;29;20032;-35
2022/11/27 04:06:12;;;;;;;14.90;3.72;;;;;;;6.98;100.00;102043.91;4911167;29;19918;-36
2022/11/27 04:08:38;;;;;;;15.10;3.50;;;;;;;6.92;100.00;102052.41;4916017;29;20028;-35
2022/11/27 04:11:04;;;;;;;14.80;3.17;;;;;;;6.87;100.00;102052.78;4898124;29;20028;-37
2022/11/27 04:13:29;;;;;;;17.95;3.97;;;;;;;6.84;100.00;102054.88;4915646;29;20031;-35
2022/11/27 04:15:54;;;;;;;13.75;3.63;;;;;;;6.88;100.00;102053.66;4908032;29;20059;-35
2022/11/27 04:18:20;;;;;;;12.98;3.42;;;;;;;6.90;100.00;102059.72;4902417;29;20123;-35
2022/11/27 04:20:45;;;;;;;18.65;3.45;;;;;;;6.83;100.00;102054.03;4914637;29;20119;-35
2022/11/27 04:23:10;;;;;;;10.00;3.30;;;;;;;6.79;100.00;102047.22;4908980;29;20458;-35
2022/11/27 04:25:36;;;;;;;28.33;4.15;;;;;;;6.85;100.00;102037.88;4902797;29;20531;-37
2022/11/27 04:28:01;;;;;;;13.40;3.28;;;;;;;6.76;100.00;102042.16;4915049;29;20059;-36
2022/11/27 04:30:26;;;;;;;19.23;2.97;;;;;;;6.74;100.00;102050.31;4912015;29;20029;-35
2022/11/27 04:32:52;;;;;;;17.55;3.55;;;;;;;6.72;100.00;102038.88;4904526;29;20119;-35
2022/11/27 04:35:17;;;;;;;24.73;3.78;;;;;;;6.66;100.00;102034.06;4915388;29;20052;-39
2022/11/27 04:37:43;;;;;;;19.38;3.25;;;;;;;6.64;100.00;102030.66;4915400;29;20546;-39
2022/11/27 04:40:08;;;;;;;14.88;3.40;;;;;;;6.62;100.00;102039.78;4908736;29;20056;-41
2022/11/27 04:42:34;;;;;;;19.60;3.45;;;;;;;6.58;100.00;102039.16;4901098;29;20127;-40
2022/11/27 04:44:59;;;;;;;10.13;2.70;;;;;;;6.58;100.00;102029.34;4915298;29;20043;-40
2022/11/27 04:47:25;;;;;;;11.15;2.90;;;;;;;6.62;100.00;102021.91;4915356;29;20028;-40
2022/11/27 04:49:50;;;;;;;13.60;3.10;;;;;;;6.62;100.00;102032.59;4915743;29;20024;-39
2022/11/27 04:52:15;;;;;;;15.80;3.63;;;;;;;6.62;100.00;102029.91;4898092;29;20397;-37
2022/11/27 04:54:41;;;;;;;12.30;2.95;;;;;;;6.58;100.00;102023.13;4902919;29;20035;-38
2022/11/27 04:57:06;;;;;;;15.13;3.30;;;;;;;6.57;100.00;102021.44;4901641;29;20397;-41
2022/11/27 04:59:32;;;;;;;14.32;3.05;;;;;;;6.58;100.00;102018.63;4896225;29;20445;-40
2022/11/27 05:01:57;;;;;;;12.93;2.83;;;;;;;6.60;100.00;102016.66;4896237;29;20048;-41
2022/11/27 05:04:22;;;;;;;18.00;3.83;;;;;;;6.59;100.00;102012.31;4896464;29;20032;-40
2022/11/27 05:06:48;;;;;;;16.60;3.47;;;;;;;6.57;100.00;102016.91;4904245;29;20047;-39
2022/11/27 05:09:13;;;;;;;13.73;2.53;;;;;;;6.61;100.00;102012.19;4915215;29;20032;-39
2022/11/27 05:11:39;;;;;;;12.82;3.00;;;;;;;6.58;100.00;102002.59;4917142;29;20072;-39
2022/11/27 05:14:21;;;;;;;10.82;2.97;;;;;;;6.62;100.00;102000.50;4896704;29;20514;-39
2022/11/27 05:16:51;;;;;;;12.88;2.42;;;;;;;6.55;100.00;102002.81;4896302;29;20108;-45
2022/11/27 05:19:18;;;;;;;14.40;2.45;;;;;;;6.47;100.00;102009.78;4906236;29;20484;-43
2022/11/27 05:21:44;;;;;;;10.60;2.00;;;;;;;6.44;100.00;101997.50;4914637;29;20104;-43
2022/11/27 05:24:10;;;;;;;11.95;2.85;;;;;;;6.45;100.00;101995.69;4914604;29;20111;-43
2022/11/27 05:26:36;;;;;;;14.38;2.53;;;;;;;6.44;100.00;101989.50;4905314;29;20553;-42
2022/11/27 05:29:01;;;;;;;17.67;2.78;;;;;;;6.43;100.00;101981.63;4904194;29;20032;-42
2022/11/27 05:31:27;;;;;;;12.82;2.40;;;;;;;6.49;100.00;101994.47;4892834;29;20114;-42
2022/11/27 05:33:53;;;;;;;10.70;1.85;;;;;;;6.42;100.00;101987.91;4890343;29;20055;-42
2022/11/27 05:36:19;;;;;;;15.80;3.05;;;;;;;6.40;100.00;101989.88;4912545;29;20071;-41
2022/11/27 05:38:44;;;;;;;7.97;2.05;;;;;;;6.37;100.00;101994.50;4891110;29;20392;-42
2022/11/27 05:41:09;;;;;;;15.40;2.85;;;;;;;6.34;100.00;101989.41;4905179;29;20059;-41
2022/11/27 05:43:35;;;;;;;10.40;2.08;;;;;;;6.34;100.00;101978.69;4911650;29;20039;-41
2022/11/27 05:46:08;;;;;;;11.65;2.55;;;;;;;6.32;100.00;101977.16;4912932;29;20020;-41
2022/11/27 05:48:34;;;;;;;11.10;2.25;;;;;;;6.30;100.00;101981.78;4901986;29;20033;-41
2022/11/27 05:50:59;;;;;;;10.95;2.17;;;;;;;6.26;100.00;101988.34;4902505;29;20050;-40
2022/11/27 05:53:25;;;;;;;12.20;2.63;;;;;;;6.23;100.00;101975.22;4912373;29;20036;-40
2022/11/27 05:55:50;;;;;;;12.77;2.65;;;;;;;6.23;100.00;101975.22;4912140;29;20043;-40
2022/11/27 05:58:15;;;;;;;11.65;2.90;;;;;;;6.21;100.00;101977.16;4912022;29;20040;-38
2022/11/27 06:00:41;;;;;;;15.25;2.90;;;;;;;6.18;100.00;101969.41;4911065;29;20042;-38
2022/11/27 06:03:06;;;;;;;13.38;2.83;;;;;;;6.21;100.00;101966.47;4909893;29;20032;-38
2022/11/27 06:05:31;;;;;;;8.95;2.97;;;;;;;6.19;100.00;101966.63;4902271;29;20032;-40
2022/11/27 06:07:57;;;;;;;12.25;2.53;;;;;;;6.17;100.00;101963.22;4911436;29;20087;-37
2022/11/27 06:10:22;;;;;;;11.93;3.20;;;;;;;6.19;100.00;101969.28;4912209;29;20492;-39
2022/11/27 06:12:47;;;;;;;13.80;3.55;;;;;;;6.19;100.00;101958.59;4912008;29;20115;-38
2022/11/27 06:15:13;;;;;;;9.70;2.85;;;;;;;6.16;100.00;101956.16;4912588;29;20063;-36
2022/11/27 06:17:38;;;;;;;15.05;2.80;;;;;;;6.20;100.00;101954.94;4911906;29;20121;-40
2022/11/27 06:20:04;;;;;;;15.55;3.10;;;;;;;6.14;100.00;101947.44;4892545;29;20484;-36
2022/11/27 06:22:30;;;;;;;20.52;3.53;;;;;;;6.12;100.00;101942.19;4908569;29;20051;-37
2022/11/27 06:24:55;;;;;;;6.63;2.65;;;;;;;6.12;100.00;101941.34;4910612;29;20032;-39
2022/11/27 06:27:20;;;;;;;14.57;3.03;;;;;;;6.13;100.00;101943.03;4911777;29;20100;-36
2022/11/27 06:29:46;;;;;;;16.33;3.35;;;;;;;6.14;100.00;101945.59;4911635;29;20110;-36
2022/11/27 06:32:13;;;;;;;10.27;2.80;;;;;;;6.13;100.00;101943.03;4912057;29;20036;-39
2022/11/27 06:34:38;;;;;;;6.30;3.03;;;;;;;6.25;100.00;101935.84;4911640;29;20407;-38
2022/11/27 06:37:03;;;;;;;16.08;2.88;;;;;;;6.24;100.00;101926.13;4910448;29;20039;-39
2022/11/27 06:39:29;;;;;;;15.80;3.30;;;;;;;6.20;100.00;101912.16;4911814;29;20054;-37
2022/11/27 06:41:54;;;;;;;6.95;2.47;;;;;;;6.20;100.00;101917.50;4909449;29;20376;-40
2022/11/27 06:44:19;;;;;;;6.75;2.40;;;;;;;6.14;100.00;101915.34;4910487;29;20040;-39
2022/11/27 06:46:45;;;;;;;10.57;2.70;;;;;;;6.17;100.00;101907.06;4911012;29;20036;-39
2022/11/27 06:49:10;;;;;;;13.05;2.90;;;;;;;6.13;100.00;101905.63;4911530;29;20357;-39
2022/11/27 06:51:35;;;;;;;10.07;2.58;;;;;;;6.13;100.00;101900.28;4911943;29;20523;-38
2022/11/27 06:54:01;;;;;;;11.68;3.20;;;;;;;6.09;100.00;101898.84;4914744;29;20036;-38
2022/11/27 06:56:27;;;;;;;7.85;3.47;;;;;;;6.12;100.00;101898.59;4915769;29;20035;-38
2022/11/27 06:58:55;;;;;;;12.15;3.10;;;;;;;6.14;100.00;101888.63;4915636;29;20419;-37
2022/11/27 07:01:24;;;;;;;11.30;3.05;;;;;;;6.10;100.00;101882.66;4914740;29;20035;-35
2022/11/27 07:03:50;;;;;;;13.43;3.17;;;;;;;6.14;100.00;101880.63;4914525;29;20234;-35
2022/11/27 07:06:18;;;;;;;9.85;3.15;;;;;;;6.13;100.00;101878.91;4913195;29;20163;-37
2022/11/27 07:08:44;;;;;;;13.73;3.30;;;;;;;6.10;100.00;101880.00;4915193;29;20160;-35
2022/11/27 07:11:12;;;;;;;13.50;3.33;;;;;;;6.08;100.00;101883.78;4915600;29;20171;-35
2022/11/27 07:13:38;;;;;;;7.45;2.78;;;;;;;6.06;100.00;101875.91;4915310;29;20448;-35
2022/11/27 07:16:08;;;;;;;12.20;2.75;;;;;;;6.15;100.00;101876.94;4897735;29;20558;-35
2022/11/27 07:18:39;;;;;;;9.43;2.60;;;;;;;6.10;100.00;101880.00;4915266;29;20036;-37
2022/11/27 07:21:04;;;;;;;10.85;3.08;;;;;;;6.15;100.00;101869.78;4915438;29;20036;-37
2022/11/27 07:23:30;;;;;;;10.85;3.17;;;;;;;6.10;100.00;101871.97;4914518;29;20066;-38
2022/11/27 07:25:55;;;;;;;8.10;2.83;;;;;;;6.09;100.00;101866.78;4915210;29;20207;-35
2022/11/27 07:28:20;;;;;;;8.07;2.58;;;;;;;6.14;100.00;101865.41;4914420;29;20042;-35
2022/11/27 07:30:56;;;;;;;9.38;2.92;;;;;;;6.27;100.00;101864.41;4914268;29;20059;-35
2022/11/27 07:33:22;;;;;;;7.45;2.75;;;;;;;6.21;100.00;101862.22;4914940;29;20051;-35
2022/11/27 07:35:48;;;;;;;16.05;2.90;;;;;;;6.21;100.00;101859.53;4914543;29;20028;-34
2022/11/27 07:38:13;;;;;;;13.38;2.72;;;;;;;6.25;100.00;101871.69;4914522;29;20024;-37
2022/11/27 07:40:38;;;;;;;11.40;3.13;;;;;;;6.20;100.00;101861.38;4910878;29;20040;-35
2022/11/27 07:43:04;;;;;;;13.48;3.47;;;;;;;6.19;100.00;101861.50;4912470;29;20028;-36
2022/11/27 07:45:29;;;;;;;10.43;2.55;;;;;;;6.27;100.00;101859.91;4914075;29;20036;-36
2022/11/27 07:47:54;;;;;;;5.45;2.22;;;;;;;6.31;100.00;101860.47;4914053;29;20086;-35
2022/11/27 07:50:20;;;;;;;12.27;2.90;;;;;;;6.30;100.00;101859.63;4913395;29;20039;-35
2022/11/27 07:52:45;;;;;;;12.77;2.67;;;;;;;6.33;100.00;101862.03;4914390;29;20020;-36
2022/11/27 07:55:11;;;;;;;9.63;2.60;;;;;;;6.29;100.00;101857.94;4914205;29;20052;-35
2022/11/27 07:57:36;;;;;;;8.23;2.97;;;;;;;6.31;100.00;101857.81;4914088;29;20028;-36
2022/11/27 08:00:02;;;;;;;13.68;3.10;;;;;;;6.32;100.00;101856.84;4914160;29;20031;-35
2022/11/27 08:02:27;;;;;;;12.82;3.10;;;;;;;6.36;100.00;101859.09;4912770;29;20028;-36
2022/11/27 08:04:53;;;;;;;13.45;2.88;;;;;;;6.38;100.00;101854.47;4910314;29;20542;-36
2022/11/27 08:07:18;;;;;;;12.88;2.90;;;;;;;6.34;100.00;101842.34;4911708;29;20095;-38
2022/11/27 08:09:43;;;;;;;8.95;2.65;;;;;;;6.31;100.00;101853.28;4914682;29;20076;-36
2022/11/27 08:12:09;;;;;;;6.82;3.15;;;;;;;6.30;100.00;101848.94;4909676;29;20203;-37
2022/11/27 08:14:34;;;;;;;17.45;3.38;;;;;;;6.35;100.00;101853.91;4899971;29;20356;-37
2022/11/27 08:16:59;;;;;;;15.77;2.95;;;;;;;6.29;100.00;101852.59;4913441;29;20376;-35
2022/11/27 08:19:25;;;;;;;11.82;3.08;;;;;;;6.24;100.00;101857.50;4913627;29;20428;-37
2022/11/27 08:21:50;;;;;;;11.05;2.95;;;;;;;6.27;100.00;101861.72;4912313;29;20360;-40
2022/11/27 08:24:15;;;;;;;6.93;2.75;;;;;;;6.21;100.00;101852.38;4913808;29;20032;-39
2022/11/27 08:26:41;;;;;;;13.35;3.05;;;;;;;6.17;100.00;101861.63;4914241;29;20394;-40
2022/11/27 08:29:06;;;;;;;10.70;2.80;;;;;;;6.20;100.00;101855.19;4911184;29;20431;-40
2022/11/27 08:31:32;;;;;;;10.73;2.83;;;;;;;6.17;100.00;101861.63;4913367;29;20451;-41
2022/11/27 08:33:58;;;;;;;13.98;3.28;;;;;;;6.19;100.00;101853.47;4912556;29;20440;-43
2022/11/27 08:36:25;;;;;;;12.10;3.50;;;;;;;6.12;100.00;101861.19;4909498;29;20083;-43
2022/11/27 08:38:51;;;;;;;17.10;3.43;;;;;;;6.09;100.00;101858.75;4910188;29;20423;-42
2022/11/27 08:41:16;;;;;;;12.30;3.53;;;;;;;6.07;100.00;101858.03;4912894;29;20083;-42
2022/11/27 08:43:42;;;;;;;8.15;3.17;;;;;;;6.07;100.00;101853.53;4913363;29;20063;-41
2022/11/27 08:46:07;;;;;;;11.95;3.78;;;;;;;6.07;100.00;101852.69;4913006;29;20032;-40
2022/11/27 08:48:33;;;;;;;7.68;3.47;;;;;;;6.07;100.00;101852.69;4914292;29;20491;-40
2022/11/27 08:50:58;;;;;;;10.93;3.45;;;;;;;6.05;100.00;101859.97;4912413;29;20040;-40
2022/11/27 08:53:23;;;;;;;7.78;4.00;;;;;;;6.02;100.00;101854.91;4897442;29;20080;-40
2022/11/27 08:55:49;;;;;;;8.15;3.35;;;;;;;6.03;100.00;101856.56;4901193;29;20459;-41
2022/11/27 08:58:14;;;;;;;10.75;3.30;;;;;;;6.06;100.00;101861.69;4912602;29;20123;-40
2022/11/27 09:00:40;;;;;;;12.57;4.32;;;;;;;6.08;100.00;101857.03;4913246;29;20095;-42
2022/11/27 09:03:05;;;;;;;10.68;4.57;;;;;;;6.04;100.00;101860.97;4916267;29;20041;-36
2022/11/27 09:05:31;;;;;;;13.05;3.72;;;;;;;6.08;100.00;101865.06;4879333;29;20056;-39
2022/11/27 09:07:58;;;;;;;18.50;4.20;;;;;;;6.10;100.00;101847.09;4899183;29;20568;-39
2022/11/27 09:10:24;;;;;;;15.07;3.53;;;;;;;6.12;100.00;101855.84;4901638;29;20060;-40
2022/11/27 09:12:49;;;;;;;11.15;3.75;;;;;;;6.13;100.00;101846.81;4902000;29;20543;-39
2022/11/27 09:15:15;;;;;;;14.63;3.92;;;;;;;6.15;100.00;101844.88;4912296;29;20040;-40
2022/11/27 09:17:40;;;;;;;12.13;4.32;;;;;;;6.15;100.00;101842.19;4912067;29;20502;-39
2022/11/27 09:20:06;;;;;;;11.68;3.42;;;;;;;6.09;100.00;101854.25;4912199;29;20040;-38
2022/11/27 09:22:33;;;;;;;7.95;3.72;;;;;;;6.14;100.00;101844.03;4909395;29;20035;-39
2022/11/27 09:24:58;;;;;;;9.88;3.83;;;;;;;6.14;100.00;101848.53;4894404;29;20024;-38
2022/11/27 09:27:23;;;;;;;8.45;3.70;;;;;;;6.12;100.00;101847.81;4894468;29;20029;-39
2022/11/27 09:29:49;;;;;;;14.75;4.30;;;;;;;6.15;100.00;101847.56;4909115;29;20077;-39
2022/11/27 09:32:14;;;;;;;16.90;4.88;;;;;;;6.23;100.00;101841.56;4913223;29;20051;-39
2022/11/27 09:34:40;;;;;;;13.02;3.97;;;;;;;6.17;100.00;101840.25;4895934;29;20598;-39
2022/11/27 09:37:05;;;;;;;14.13;4.43;;;;;;;6.12;100.00;101839.78;4912025;29;20511;-40
2022/11/27 09:39:32;;;;;;;12.85;4.35;;;;;;;6.06;100.00;101821.59;4912907;29;20087;-40
2022/11/27 09:42:00;;;;;;;6.95;4.10;;;;;;;6.09;100.00;101824.84;4912787;29;20090;-39
2022/11/27 09:44:41;;;;;;;10.75;3.80;;;;;;;6.08;100.00;101822.31;4880264;29;20168;-37
2022/11/27 09:47:22;;;;;;;13.48;4.35;;;;;;;6.07;100.00;101825.97;4913069;29;20035;-39
2022/11/27 09:49:57;;;;;;;15.32;4.75;;;;;;;6.07;100.00;101823.28;4914391;29;20348;-38
2022/11/27 09:52:23;;;;;;;13.02;4.85;;;;;;;6.07;100.00;101825.97;4906381;29;20389;-38
2022/11/27 09:54:56;;;;;;;14.57;5.13;;;;;;;6.16;100.00;101825.19;4896391;29;20047;-39
2022/11/27 09:57:31;;;;;;;11.32;5.05;;;;;;;6.09;100.00;101821.34;4881105;29;20373;-36
2022/11/27 10:00:01;;;;;;;14.75;5.30;;;;;;;6.10;100.00;101825.69;4895718;29;20059;-36
2022/11/27 10:02:29;;;;;;;18.20;6.05;;;;;;;6.13;100.00;101822.78;4901268;29;20088;-38
2022/11/27 10:04:56;;;;;;;14.90;5.22;;;;;;;6.14;100.00;101819.13;4907990;29;20111;-37
2022/11/27 10:07:47;;;;;;;11.10;4.78;;;;;;;6.13;100.00;101820.09;4914017;29;20043;-37
2022/11/27 10:10:35;;;;;;;12.68;5.53;;;;;;;6.15;100.00;101810.97;4895528;29;20386;-38
2022/11/27 10:13:13;;;;;;;14.10;5.38;;;;;;;6.16;100.00;101809.13;4894301;29;20058;-38
2022/11/27 10:16:01;;;;;;;15.95;5.32;;;;;;;6.18;100.00;101807.19;4894211;29;20036;-37
2022/11/27 10:18:45;;;;;;;11.95;4.88;;;;;;;6.12;100.00;101802.38;4888915;29;20103;-38
2022/11/27 10:21:13;;;;;;;18.40;4.70;;;;;;;6.18;100.00;101801.84;4927980;29;20036;-39
2022/11/27 10:23:46;;;;;;;14.77;5.13;;;;;;;6.20;100.00;101802.56;4914317;29;20040;-38
2022/11/27 10:26:21;;;;;;;13.35;4.63;;;;;;;6.12;100.00;101799.69;4928301;29;20032;-39
2022/11/27 10:29:24;;;;;;;11.70;4.50;;;;;;;6.19;100.00;101808.03;4896229;29;20032;-40
2022/11/27 10:31:59;;;;;;;14.65;4.55;;;;;;;6.24;100.00;101805.81;4897979;29;20039;-40
2022/11/27 10:34:38;;;;;;;14.02;5.13;;;;;;;6.23;100.00;101799.63;4887091;29;20103;-39
2022/11/27 10:37:27;;;;;;;11.52;5.28;;;;;;;6.22;100.00;101803.28;4897060;29;20036;-39
2022/11/27 10:40:00;;;;;;;11.13;5.50;;;;;;;6.28;100.00;101801.94;4907806;29;20039;-40
2022/11/27 10:43:07;;;;;;;12.98;5.63;;;;;;;6.27;100.00;101795.75;4913752;29;20060;-35
2022/11/27 10:45:43;;;;;;;18.63;5.80;;;;;;;6.27;100.00;101782.38;4898921;29;20036;-40
2022/11/27 10:48:08;;;;;;;18.88;5.70;;;;;;;6.30;100.00;101779.44;4914076;29;20040;-38
2022/11/27 10:50:34;;;;;;;14.35;6.60;;;;;;;6.25;100.00;101770.94;4889264;29;20028;-38
2022/11/27 10:53:05;;;;;;;17.70;6.40;;;;;;;6.29;100.00;101772.41;4895042;29;20053;-39
2022/11/27 10:55:48;;;;;;;17.95;5.97;;;;;;;6.22;100.00;101765.88;4913940;29;20036;-38
2022/11/27 10:58:23;;;;;;;21.15;7.38;;;;;;;6.21;100.00;101756.13;4913994;29;20428;-36
2022/11/27 11:00:59;;;;;;;15.32;6.82;;;;;;;6.25;100.00;101754.91;4926003;29;20036;-37
2022/11/27 11:03:24;;;;;;;20.40;7.72;;;;;;;6.23;100.00;101756.88;4911772;29;20036;-37
2022/11/27 11:06:01;;;;;;;18.25;7.55;;;;;;;6.16;100.00;101750.34;4908121;29;20407;-37
2022/11/27 11:08:28;;;;;;;22.10;7.88;;;;;;;6.21;100.00;101749.94;4912249;29;20111;-36
2022/11/27 11:11:00;;;;;;;19.90;7.55;;;;;;;6.20;100.00;101741.09;4908891;29;20037;-37
2022/11/27 11:13:44;;;;;;;16.42;7.43;;;;;;;6.15;100.00;101738.81;4909522;29;20031;-37
2022/11/27 11:16:10;;;;;;;24.67;8.30;;;;;;;6.23;100.00;101740.81;4913273;29;20142;-36
2022/11/27 11:18:45;;;;;;;20.00;8.55;;;;;;;6.22;100.00;101736.47;4912891;29;20446;-35
2022/11/27 11:21:32;;;;;;;19.27;8.68;;;;;;;6.22;100.00;101749.00;4912866;29;20044;-35
2022/11/27 11:24:00;;;;;;;24.60;8.57;;;;;;;6.20;100.00;101741.09;4913656;29;20044;-34
2022/11/27 11:26:47;;;;;;;19.75;8.35;;;;;;;6.15;100.00;101738.81;4889271;29;20079;-34